sensor_id;sensor_type;location;lat;lon;timestamp;temperature;humidity
7331;DHT22;3706;49.198;7.064;2022-09-09T00:00:53;14.60;99.90
7331;DHT22;3706;49.198;7.064;2022-09-09T00:03:26;14.60;99.90
7331;DHT22;3706;49.198;7.064;2022-09-09T00:05:59;14.70;99.90
7331;DHT22;3706;49.198;7.064;2022-09-09T00:08:36;14.60;99.90
7331;DHT22;3706;49.198;7.064;2022-09-09T00:11:07;14.50;99.90
7331;DHT22;3706;49.198;7.064;2022-09-09T00:13:41;14.50;99.90
7331;DHT22;3706;49.198;7.064;2022-09-09T00:16:15;14.60;99.90
7331;DHT22;3706;49.198;7.064;2022-09-09T00:18:51;14.70;99.90
7331;DHT22;3706;49.198;7.064;2022-09-09T00:21:23;14.70;99.90
7331;DHT22;3706;49.198;7.064;2022-09-09T00:23:54;14.80;99.90
7331;DHT22;3706;49.198;7.064;2022-09-09T00:26:28;14.80;99.90
7331;DHT22;3706;49.198;7.064;2022-09-09T00:29:05;14.80;99.90
7331;DHT22;3706;49.198;7.064;2022-09-09T00:31:36;14.80;99.90
7331;DHT22;3706;49.198;7.064;2022-09-09T00:34:11;14.80;99.90
7331;DHT22;3706;49.198;7.064;2022-09-09T00:36:39;14.80;99.90
7331;DHT22;3706;49.198;7.064;2022-09-09T00:39:13;14.90;99.90
7331;DHT22;3706;49.198;7.064;2022-09-09T00:41:59;14.90;99.90
7331;DHT22;3706;49.198;7.064;2022-09-09T00:44:33;14.90;99.90
7331;DHT22;3706;49.198;7.064;2022-09-09T00:47:09;14.90;99.90
7331;DHT22;3706;49.198;7.064;2022-09-09T00:49:46;14.90;99.90
7331;DHT22;3706;49.198;7.064;2022-09-09T00:52:26;14.90;99.90
7331;DHT22;3706;49.198;7.064;2022-09-09T00:55:05;14.80;99.90
7331;DHT22;3706;49.198;7.064;2022-09-09T00:57:34;14.80;99.90
7331;DHT22;3706;49.198;7.064;2022-09-09T01:03:03;14.80;99.90
7331;DHT22;3706;49.198;7.064;2022-09-09T01:05:43;14.70;99.90
7331;DHT22;3706;49.198;7.064;2022-09-09T01:08:27;14.60;99.90
7331;DHT22;3706;49.198;7.064;2022-09-09T01:10:59;14.50;99.90
7331;DHT22;3706;49.198;7.064;2022-09-09T01:13:29;14.40;99.90
7331;DHT22;3706;49.198;7.064;2022-09-09T01:15:58;14.40;99.90
7331;DHT22;3706;49.198;7.064;2022-09-09T01:18:30;14.40;99.90
7331;DHT22;3706;49.198;7.064;2022-09-09T01:21:04;14.40;99.90
7331;DHT22;3706;49.198;7.064;2022-09-09T01:23:44;14.40;99.90
7331;DHT22;3706;49.198;7.064;2022-09-09T01:26:19;14.40;99.90
7331;DHT22;3706;49.198;7.064;2022-09-09T01:28:50;14.40;99.90
7331;DHT22;3706;49.198;7.064;2022-09-09T01:31:21;14.40;99.90
7331;DHT22;3706;49.198;7.064;2022-09-09T01:33:49;14.40;99.90
7331;DHT22;3706;49.198;7.064;2022-09-09T01:36:23;14.50;99.90
7331;DHT22;3706;49.198;7.064;2022-09-09T01:38:50;14.50;99.90
7331;DHT22;3706;49.198;7.064;2022-09-09T01:41:19;14.60;99.90
7331;DHT22;3706;49.198;7.064;2022-09-09T01:43:46;14.70;99.90
7331;DHT22;3706;49.198;7.064;2022-09-09T01:46:13;14.60;99.90
7331;DHT22;3706;49.198;7.064;2022-09-09T01:48:41;14.70;99.90
7331;DHT22;3706;49.198;7.064;2022-09-09T01:51:09;14.70;99.90
7331;DHT22;3706;49.198;7.064;2022-09-09T01:53:37;14.70;99.90
7331;DHT22;3706;49.198;7.064;2022-09-09T01:56:14;14.70;99.90
7331;DHT22;3706;49.198;7.064;2022-09-09T01:58:56;14.70;99.90
7331;DHT22;3706;49.198;7.064;2022-09-09T02:01:37;14.70;99.90
7331;DHT22;3706;49.198;7.064;2022-09-09T02:04:13;14.70;99.90
7331;DHT22;3706;49.198;7.064;2022-09-09T02:06:43;14.70;99.90
7331;DHT22;3706;49.198;7.064;2022-09-09T02:09:13;14.60;99.90
7331;DHT22;3706;49.198;7.064;2022-09-09T02:11:44;14.60;99.90
7331;DHT22;3706;49.198;7.064;2022-09-09T02:14:17;14.60;99.90
7331;DHT22;3706;49.198;7.064;2022-09-09T02:16:49;14.60;99.90
7331;DHT22;3706;49.198;7.064;2022-09-09T02:19:22;14.60;99.90
7331;DHT22;3706;49.198;7.064;2022-09-09T02:21:54;14.50;99.90
7331;DHT22;3706;49.198;7.064;2022-09-09T02:24:22;14.40;99.90
7331;DHT22;3706;49.198;7.064;2022-09-09T02:26:52;14.40;99.90
7331;DHT22;3706;49.198;7.064;2022-09-09T02:29:24;14.40;99.90
7331;DHT22;3706;49.198;7.064;2022-09-09T02:31:53;14.40;99.90
7331;DHT22;3706;49.198;7.064;2022-09-09T02:34:23;14.40;99.90
7331;DHT22;3706;49.198;7.064;2022-09-09T02:36:54;14.30;99.90
7331;DHT22;3706;49.198;7.064;2022-09-09T02:39:21;14.30;99.90
7331;DHT22;3706;49.198;7.064;2022-09-09T02:41:48;14.30;99.90
7331;DHT22;3706;49.198;7.064;2022-09-09T02:44:17;14.20;99.90
7331;DHT22;3706;49.198;7.064;2022-09-09T02:47:05;14.20;99.90
7331;DHT22;3706;49.198;7.064;2022-09-09T02:49:41;14.10;99.90
7331;DHT22;3706;49.198;7.064;2022-09-09T02:52:14;14.00;99.90
7331;DHT22;3706;49.198;7.064;2022-09-09T02:54:42;14.00;99.90
7331;DHT22;3706;49.198;7.064;2022-09-09T02:57:12;14.00;99.90
7331;DHT22;3706;49.198;7.064;2022-09-09T02:59:39;14.00;99.90
7331;DHT22;3706;49.198;7.064;2022-09-09T03:02:08;14.00;99.90
7331;DHT22;3706;49.198;7.064;2022-09-09T03:04:35;14.10;99.90
7331;DHT22;3706;49.198;7.064;2022-09-09T03:07:02;14.10;99.90
7331;DHT22;3706;49.198;7.064;2022-09-09T03:09:30;14.10;99.90
7331;DHT22;3706;49.198;7.064;2022-09-09T03:11:58;14.10;99.90
7331;DHT22;3706;49.198;7.064;2022-09-09T03:14:25;14.00;99.90
7331;DHT22;3706;49.198;7.064;2022-09-09T03:16:53;14.00;99.90
7331;DHT22;3706;49.198;7.064;2022-09-09T03:19:23;14.00;99.90
7331;DHT22;3706;49.198;7.064;2022-09-09T03:21:50;14.00;99.90
7331;DHT22;3706;49.198;7.064;2022-09-09T03:24:17;14.00;99.90
7331;DHT22;3706;49.198;7.064;2022-09-09T03:26:44;14.10;99.90
7331;DHT22;3706;49.198;7.064;2022-09-09T03:29:11;14.00;99.90
7331;DHT22;3706;49.198;7.064;2022-09-09T03:31:39;14.00;99.90
7331;DHT22;3706;49.198;7.064;2022-09-09T03:34:06;13.90;99.90
7331;DHT22;3706;49.198;7.064;2022-09-09T03:36:34;13.80;99.90
7331;DHT22;3706;49.198;7.064;2022-09-09T03:39:02;13.80;99.90
7331;DHT22;3706;49.198;7.064;2022-09-09T03:41:30;13.80;99.90
7331;DHT22;3706;49.198;7.064;2022-09-09T03:43:57;13.80;99.90
7331;DHT22;3706;49.198;7.064;2022-09-09T03:46:25;13.70;99.90
7331;DHT22;3706;49.198;7.064;2022-09-09T03:48:52;13.70;99.90
7331;DHT22;3706;49.198;7.064;2022-09-09T03:51:19;13.70;99.90
7331;DHT22;3706;49.198;7.064;2022-09-09T03:53:48;13.70;99.90
7331;DHT22;3706;49.198;7.064;2022-09-09T03:56:15;13.70;99.90
7331;DHT22;3706;49.198;7.064;2022-09-09T03:58:41;13.70;99.90
7331;DHT22;3706;49.198;7.064;2022-09-09T04:01:10;13.70;99.90
7331;DHT22;3706;49.198;7.064;2022-09-09T04:03:38;13.80;99.90
7331;DHT22;3706;49.198;7.064;2022-09-09T04:06:07;13.80;99.90
7331;DHT22;3706;49.198;7.064;2022-09-09T04:08:35;13.90;99.90
7331;DHT22;3706;49.198;7.064;2022-09-09T04:11:05;13.90;99.90
7331;DHT22;3706;49.198;7.064;2022-09-09T04:13:32;13.80;99.90
7331;DHT22;3706;49.198;7.064;2022-09-09T04:16:02;13.80;99.90
7331;DHT22;3706;49.198;7.064;2022-09-09T04:18:30;13.80;99.90
7331;DHT22;3706;49.198;7.064;2022-09-09T04:20:58;13.90;99.90
7331;DHT22;3706;49.198;7.064;2022-09-09T04:23:25;13.90;99.90
7331;DHT22;3706;49.198;7.064;2022-09-09T04:25:55;13.90;99.90
7331;DHT22;3706;49.198;7.064;2022-09-09T04:28:25;13.90;99.90
7331;DHT22;3706;49.198;7.064;2022-09-09T04:30:53;13.90;99.90
7331;DHT22;3706;49.198;7.064;2022-09-09T04:33:20;13.90;99.90
7331;DHT22;3706;49.198;7.064;2022-09-09T04:35:49;13.90;99.90
7331;DHT22;3706;49.198;7.064;2022-09-09T04:38:17;14.10;99.90
7331;DHT22;3706;49.198;7.064;2022-09-09T04:40:46;14.20;99.90
7331;DHT22;3706;49.198;7.064;2022-09-09T04:43:13;14.20;99.90
7331;DHT22;3706;49.198;7.064;2022-09-09T04:45:42;14.30;99.90
7331;DHT22;3706;49.198;7.064;2022-09-09T04:48:09;14.30;99.90
7331;DHT22;3706;49.198;7.064;2022-09-09T04:50:36;14.30;99.90
7331;DHT22;3706;49.198;7.064;2022-09-09T04:53:04;14.40;99.90
7331;DHT22;3706;49.198;7.064;2022-09-09T04:55:31;14.40;99.90
7331;DHT22;3706;49.198;7.064;2022-09-09T04:58:03;14.40;99.90
7331;DHT22;3706;49.198;7.064;2022-09-09T05:00:30;14.40;99.90
7331;DHT22;3706;49.198;7.064;2022-09-09T05:03:02;14.50;99.90
7331;DHT22;3706;49.198;7.064;2022-09-09T05:05:30;14.50;99.90
7331;DHT22;3706;49.198;7.064;2022-09-09T05:08:01;14.50;99.90
7331;DHT22;3706;49.198;7.064;2022-09-09T05:10:29;14.50;99.90
7331;DHT22;3706;49.198;7.064;2022-09-09T05:12:56;14.60;99.90
7331;DHT22;3706;49.198;7.064;2022-09-09T05:15:23;14.60;99.90
7331;DHT22;3706;49.198;7.064;2022-09-09T05:17:50;14.60;99.90
7331;DHT22;3706;49.198;7.064;2022-09-09T05:20:19;14.60;99.90
7331;DHT22;3706;49.198;7.064;2022-09-09T05:22:46;14.60;99.90
7331;DHT22;3706;49.198;7.064;2022-09-09T05:25:14;14.60;99.90
7331;DHT22;3706;49.198;7.064;2022-09-09T05:27:41;14.60;99.90
7331;DHT22;3706;49.198;7.064;2022-09-09T05:30:09;14.60;99.90
7331;DHT22;3706;49.198;7.064;2022-09-09T05:32:36;14.60;99.90
7331;DHT22;3706;49.198;7.064;2022-09-09T05:35:04;14.60;99.90
7331;DHT22;3706;49.198;7.064;2022-09-09T05:37:32;14.60;99.90
7331;DHT22;3706;49.198;7.064;2022-09-09T05:39:59;14.60;99.90
7331;DHT22;3706;49.198;7.064;2022-09-09T05:42:30;14.60;99.90
7331;DHT22;3706;49.198;7.064;2022-09-09T05:44:57;14.70;99.90
7331;DHT22;3706;49.198;7.064;2022-09-09T05:47:24;14.70;99.90
7331;DHT22;3706;49.198;7.064;2022-09-09T05:49:53;14.80;99.90
7331;DHT22;3706;49.198;7.064;2022-09-09T05:52:20;14.80;99.90
7331;DHT22;3706;49.198;7.064;2022-09-09T05:54:49;14.90;99.90
7331;DHT22;3706;49.198;7.064;2022-09-09T05:57:16;14.90;99.90
7331;DHT22;3706;49.198;7.064;2022-09-09T05:59:45;14.90;99.90
7331;DHT22;3706;49.198;7.064;2022-09-09T06:02:12;15.00;99.90
7331;DHT22;3706;49.198;7.064;2022-09-09T06:04:39;15.00;99.90
7331;DHT22;3706;49.198;7.064;2022-09-09T06:07:06;15.10;99.90
7331;DHT22;3706;49.198;7.064;2022-09-09T06:09:33;15.20;99.90
7331;DHT22;3706;49.198;7.064;2022-09-09T06:12:01;15.30;99.90
7331;DHT22;3706;49.198;7.064;2022-09-09T06:14:28;15.30;99.90
7331;DHT22;3706;49.198;7.064;2022-09-09T06:16:55;15.40;99.90
7331;DHT22;3706;49.198;7.064;2022-09-09T06:19:22;15.50;99.90
7331;DHT22;3706;49.198;7.064;2022-09-09T06:21:49;15.50;99.90
7331;DHT22;3706;49.198;7.064;2022-09-09T06:24:16;15.50;99.90
7331;DHT22;3706;49.198;7.064;2022-09-09T06:26:45;15.60;99.90
7331;DHT22;3706;49.198;7.064;2022-09-09T06:29:13;15.60;99.90
7331;DHT22;3706;49.198;7.064;2022-09-09T06:31:40;15.60;99.90
7331;DHT22;3706;49.198;7.064;2022-09-09T06:34:08;15.60;99.90
7331;DHT22;3706;49.198;7.064;2022-09-09T06:36:37;15.70;99.90
7331;DHT22;3706;49.198;7.064;2022-09-09T06:39:04;15.70;99.90
7331;DHT22;3706;49.198;7.064;2022-09-09T06:41:32;15.70;99.90
7331;DHT22;3706;49.198;7.064;2022-09-09T06:43:59;15.80;99.90
7331;DHT22;3706;49.198;7.064;2022-09-09T06:46:29;15.80;99.90
7331;DHT22;3706;49.198;7.064;2022-09-09T06:48:58;15.80;99.90
7331;DHT22;3706;49.198;7.064;2022-09-09T06:51:27;15.90;99.90
7331;DHT22;3706;49.198;7.064;2022-09-09T06:53:55;15.90;99.90
7331;DHT22;3706;49.198;7.064;2022-09-09T06:56:24;16.00;99.90
7331;DHT22;3706;49.198;7.064;2022-09-09T06:58:54;16.00;99.90
7331;DHT22;3706;49.198;7.064;2022-09-09T07:01:22;16.10;99.90
7331;DHT22;3706;49.198;7.064;2022-09-09T07:03:52;16.20;99.90
7331;DHT22;3706;49.198;7.064;2022-09-09T07:06:21;16.20;99.90
7331;DHT22;3706;49.198;7.064;2022-09-09T07:08:50;16.30;99.90
7331;DHT22;3706;49.198;7.064;2022-09-09T07:11:18;16.40;99.90
7331;DHT22;3706;49.198;7.064;2022-09-09T07:13:45;16.50;99.90
7331;DHT22;3706;49.198;7.064;2022-09-09T07:16:18;16.50;99.90
7331;DHT22;3706;49.198;7.064;2022-09-09T07:19:02;16.50;99.90
7331;DHT22;3706;49.198;7.064;2022-09-09T07:21:31;16.60;99.90
7331;DHT22;3706;49.198;7.064;2022-09-09T07:24:24;16.60;99.90
7331;DHT22;3706;49.198;7.064;2022-09-09T07:26:58;16.70;99.90
7331;DHT22;3706;49.198;7.064;2022-09-09T07:29:40;16.80;99.90
7331;DHT22;3706;49.198;7.064;2022-09-09T07:32:07;17.10;99.90
7331;DHT22;3706;49.198;7.064;2022-09-09T07:34:51;17.20;99.90
7331;DHT22;3706;49.198;7.064;2022-09-09T07:37:37;17.20;99.90
7331;DHT22;3706;49.198;7.064;2022-09-09T07:40:14;17.40;99.90
7331;DHT22;3706;49.198;7.064;2022-09-09T07:44:28;17.50;99.90
7331;DHT22;3706;49.198;7.064;2022-09-09T07:46:08;17.50;99.90
7331;DHT22;3706;49.198;7.064;2022-09-09T07:48:48;17.80;99.90
7331;DHT22;3706;49.198;7.064;2022-09-09T07:51:41;18.00;99.90
7331;DHT22;3706;49.198;7.064;2022-09-09T07:54:22;18.10;99.90
7331;DHT22;3706;49.198;7.064;2022-09-09T07:56:59;18.20;99.90
7331;DHT22;3706;49.198;7.064;2022-09-09T07:59:38;18.40;99.90
7331;DHT22;3706;49.198;7.064;2022-09-09T08:02:50;18.40;99.90
7331;DHT22;3706;49.198;7.064;2022-09-09T08:04:56;18.40;99.90
7331;DHT22;3706;49.198;7.064;2022-09-09T08:07:28;18.60;99.90
7331;DHT22;3706;49.198;7.064;2022-09-09T08:10:10;18.90;99.90
7331;DHT22;3706;49.198;7.064;2022-09-09T08:12:53;19.20;99.90
7331;DHT22;3706;49.198;7.064;2022-09-09T08:15:42;19.40;99.90
7331;DHT22;3706;49.198;7.064;2022-09-09T08:18:17;19.40;99.90
7331;DHT22;3706;49.198;7.064;2022-09-09T08:21:07;19.50;99.90
7331;DHT22;3706;49.198;7.064;2022-09-09T08:23:45;19.50;99.90
7331;DHT22;3706;49.198;7.064;2022-09-09T08:26:21;19.50;99.90
7331;DHT22;3706;49.198;7.064;2022-09-09T08:28:50;19.60;99.90
7331;DHT22;3706;49.198;7.064;2022-09-09T08:31:35;20.00;99.90
7331;DHT22;3706;49.198;7.064;2022-09-09T08:34:23;20.10;99.90
7331;DHT22;3706;49.198;7.064;2022-09-09T08:36:53;20.00;99.90
7331;DHT22;3706;49.198;7.064;2022-09-09T08:39:32;19.80;99.90
7331;DHT22;3706;49.198;7.064;2022-09-09T08:45:27;19.40;99.90
7331;DHT22;3706;49.198;7.064;2022-09-09T08:48:25;19.40;99.90
7331;DHT22;3706;49.198;7.064;2022-09-09T08:50:59;19.50;99.90
7331;DHT22;3706;49.198;7.064;2022-09-09T08:53:38;19.70;99.90
7331;DHT22;3706;49.198;7.064;2022-09-09T08:56:25;19.90;99.90
7331;DHT22;3706;49.198;7.064;2022-09-09T09:02:24;20.30;99.90
7331;DHT22;3706;49.198;7.064;2022-09-09T09:05:23;20.30;99.90
7331;DHT22;3706;49.198;7.064;2022-09-09T09:08:11;20.10;99.90
7331;DHT22;3706;49.198;7.064;2022-09-09T09:10:47;20.10;99.90
7331;DHT22;3706;49.198;7.064;2022-09-09T09:13:38;20.10;99.90
7331;DHT22;3706;49.198;7.064;2022-09-09T09:16:17;20.00;99.90
7331;DHT22;3706;49.198;7.064;2022-09-09T09:19:10;20.00;99.90
7331;DHT22;3706;49.198;7.064;2022-09-09T09:21:56;20.00;99.90
7331;DHT22;3706;49.198;7.064;2022-09-09T09:24:40;20.10;99.90
7331;DHT22;3706;49.198;7.064;2022-09-09T09:27:33;20.50;99.90
7331;DHT22;3706;49.198;7.064;2022-09-09T09:30:31;21.50;99.90
7331;DHT22;3706;49.198;7.064;2022-09-09T09:33:17;22.30;99.90
7331;DHT22;3706;49.198;7.064;2022-09-09T09:36:37;22.60;99.90
7331;DHT22;3706;49.198;7.064;2022-09-09T09:39:26;22.40;99.90
7331;DHT22;3706;49.198;7.064;2022-09-09T09:42:16;21.90;99.90
7331;DHT22;3706;49.198;7.064;2022-09-09T09:45:20;21.10;99.90
7331;DHT22;3706;49.198;7.064;2022-09-09T09:48:10;20.40;99.90
7331;DHT22;3706;49.198;7.064;2022-09-09T09:50:54;19.70;99.90
7331;DHT22;3706;49.198;7.064;2022-09-09T09:53:29;18.60;99.90
7331;DHT22;3706;49.198;7.064;2022-09-09T09:58:32;17.10;99.90
7331;DHT22;3706;49.198;7.064;2022-09-09T10:01:00;16.90;99.90
7331;DHT22;3706;49.198;7.064;2022-09-09T10:03:30;16.80;99.90
7331;DHT22;3706;49.198;7.064;2022-09-09T10:05:57;16.90;99.90
7331;DHT22;3706;49.198;7.064;2022-09-09T10:08:26;17.40;99.90
7331;DHT22;3706;49.198;7.064;2022-09-09T10:11:21;18.50;99.90
7331;DHT22;3706;49.198;7.064;2022-09-09T10:14:00;19.90;99.90
7331;DHT22;3706;49.198;7.064;2022-09-09T10:16:41;21.40;99.90
7331;DHT22;3706;49.198;7.064;2022-09-09T10:19:16;22.80;99.90
7331;DHT22;3706;49.198;7.064;2022-09-09T10:22:10;23.80;99.90
7331;DHT22;3706;49.198;7.064;2022-09-09T10:27:55;24.50;99.90
7331;DHT22;3706;49.198;7.064;2022-09-09T10:30:31;25.00;99.90
7331;DHT22;3706;49.198;7.064;2022-09-09T10:33:07;25.50;98.30
7331;DHT22;3706;49.198;7.064;2022-09-09T10:35:41;26.00;98.00
7331;DHT22;3706;49.198;7.064;2022-09-09T10:38:14;27.00;97.40
7331;DHT22;3706;49.198;7.064;2022-09-09T10:40:47;28.10;92.50
7331;DHT22;3706;49.198;7.064;2022-09-09T10:43:29;28.70;90.80
7331;DHT22;3706;49.198;7.064;2022-09-09T10:46:04;29.10;86.40
7331;DHT22;3706;49.198;7.064;2022-09-09T10:48:49;28.60;83.50
7331;DHT22;3706;49.198;7.064;2022-09-09T10:51:28;27.10;86.30
7331;DHT22;3706;49.198;7.064;2022-09-09T10:54:12;25.30;91.00
7331;DHT22;3706;49.198;7.064;2022-09-09T10:56:41;23.90;93.50
7331;DHT22;3706;49.198;7.064;2022-09-09T10:59:13;22.80;95.80
7331;DHT22;3706;49.198;7.064;2022-09-09T11:01:44;21.90;98.20
7331;DHT22;3706;49.198;7.064;2022-09-09T11:04:16;21.30;99.90
7331;DHT22;3706;49.198;7.064;2022-09-09T11:06:48;21.10;99.90
7331;DHT22;3706;49.198;7.064;2022-09-09T11:09:21;21.10;99.90
7331;DHT22;3706;49.198;7.064;2022-09-09T11:11:52;21.30;99.90
7331;DHT22;3706;49.198;7.064;2022-09-09T11:14:25;21.70;99.90
7331;DHT22;3706;49.198;7.064;2022-09-09T11:16:57;22.10;99.90
7331;DHT22;3706;49.198;7.064;2022-09-09T11:19:30;22.10;99.90
7331;DHT22;3706;49.198;7.064;2022-09-09T11:22:02;22.00;99.90
7331;DHT22;3706;49.198;7.064;2022-09-09T11:24:35;21.70;99.90
7331;DHT22;3706;49.198;7.064;2022-09-09T11:27:08;21.10;99.90
7331;DHT22;3706;49.198;7.064;2022-09-09T11:29:52;20.30;99.90
7331;DHT22;3706;49.198;7.064;2022-09-09T11:32:40;19.50;99.90
7331;DHT22;3706;49.198;7.064;2022-09-09T11:35:26;19.30;99.90
7331;DHT22;3706;49.198;7.064;2022-09-09T11:38:07;19.50;99.90
7331;DHT22;3706;49.198;7.064;2022-09-09T11:40:38;19.90;99.90
7331;DHT22;3706;49.198;7.064;2022-09-09T11:43:09;20.60;99.90
7331;DHT22;3706;49.198;7.064;2022-09-09T11:45:40;21.70;99.90
7331;DHT22;3706;49.198;7.064;2022-09-09T11:48:23;23.10;99.90
7331;DHT22;3706;49.198;7.064;2022-09-09T11:51:00;23.90;99.90
7331;DHT22;3706;49.198;7.064;2022-09-09T11:53:30;24.00;99.90
7331;DHT22;3706;49.198;7.064;2022-09-09T11:56:03;23.50;99.90
7331;DHT22;3706;49.198;7.064;2022-09-09T11:58:35;22.80;99.90
7331;DHT22;3706;49.198;7.064;2022-09-09T12:01:14;22.20;99.90
7331;DHT22;3706;49.198;7.064;2022-09-09T12:03:43;21.70;99.90
7331;DHT22;3706;49.198;7.064;2022-09-09T12:06:15;21.30;99.90
7331;DHT22;3706;49.198;7.064;2022-09-09T12:08:48;21.00;99.90
7331;DHT22;3706;49.198;7.064;2022-09-09T12:11:28;20.60;99.90
7331;DHT22;3706;49.198;7.064;2022-09-09T12:13:57;20.20;99.90
7331;DHT22;3706;49.198;7.064;2022-09-09T12:16:30;19.90;99.90
7331;DHT22;3706;49.198;7.064;2022-09-09T12:19:15;19.40;99.90
7331;DHT22;3706;49.198;7.064;2022-09-09T12:21:50;18.90;99.90
7331;DHT22;3706;49.198;7.064;2022-09-09T12:24:27;18.60;99.90
7331;DHT22;3706;49.198;7.064;2022-09-09T12:27:03;18.40;99.90
7331;DHT22;3706;49.198;7.064;2022-09-09T12:29:41;18.50;99.90
7331;DHT22;3706;49.198;7.064;2022-09-09T12:32:11;19.20;99.90
7331;DHT22;3706;49.198;7.064;2022-09-09T12:34:40;20.40;99.90
7331;DHT22;3706;49.198;7.064;2022-09-09T12:37:16;21.60;99.90
7331;DHT22;3706;49.198;7.064;2022-09-09T12:39:51;22.70;99.90
7331;DHT22;3706;49.198;7.064;2022-09-09T12:42:21;23.30;99.90
7331;DHT22;3706;49.198;7.064;2022-09-09T12:44:53;23.50;99.90
7331;DHT22;3706;49.198;7.064;2022-09-09T12:47:23;23.30;99.90
7331;DHT22;3706;49.198;7.064;2022-09-09T12:49:51;22.90;99.90
7331;DHT22;3706;49.198;7.064;2022-09-09T12:52:25;22.40;99.90
7331;DHT22;3706;49.198;7.064;2022-09-09T12:54:57;22.00;99.90
7331;DHT22;3706;49.198;7.064;2022-09-09T12:57:33;21.50;99.90
7331;DHT22;3706;49.198;7.064;2022-09-09T13:00:06;20.90;99.90
7331;DHT22;3706;49.198;7.064;2022-09-09T13:02:34;20.20;99.90
7331;DHT22;3706;49.198;7.064;2022-09-09T13:05:09;19.70;99.90
7331;DHT22;3706;49.198;7.064;2022-09-09T13:07:40;19.40;99.90
7331;DHT22;3706;49.198;7.064;2022-09-09T13:10:12;19.50;99.90
7331;DHT22;3706;49.198;7.064;2022-09-09T13:12:39;19.40;99.90
7331;DHT22;3706;49.198;7.064;2022-09-09T13:15:26;19.30;99.90
7331;DHT22;3706;49.198;7.064;2022-09-09T13:17:56;19.10;99.90
7331;DHT22;3706;49.198;7.064;2022-09-09T13:20:26;18.90;99.90
7331;DHT22;3706;49.198;7.064;2022-09-09T13:22:54;18.80;99.90
7331;DHT22;3706;49.198;7.064;2022-09-09T13:25:26;18.60;99.90
7331;DHT22;3706;49.198;7.064;2022-09-09T13:27:56;18.40;99.90
7331;DHT22;3706;49.198;7.064;2022-09-09T13:30:25;18.40;99.90
7331;DHT22;3706;49.198;7.064;2022-09-09T13:33:17;18.40;99.90
7331;DHT22;3706;49.198;7.064;2022-09-09T13:35:47;18.70;99.90
7331;DHT22;3706;49.198;7.064;2022-09-09T13:38:16;18.90;99.90
7331;DHT22;3706;49.198;7.064;2022-09-09T13:40:54;19.20;99.90
7331;DHT22;3706;49.198;7.064;2022-09-09T13:43:24;19.60;99.90
7331;DHT22;3706;49.198;7.064;2022-09-09T13:45:56;19.90;99.90
7331;DHT22;3706;49.198;7.064;2022-09-09T13:48:24;20.60;99.90
7331;DHT22;3706;49.198;7.064;2022-09-09T13:50:59;21.40;99.90
7331;DHT22;3706;49.198;7.064;2022-09-09T13:53:27;22.00;99.90
7331;DHT22;3706;49.198;7.064;2022-09-09T13:55:56;22.40;99.90
7331;DHT22;3706;49.198;7.064;2022-09-09T13:58:24;22.70;99.90
7331;DHT22;3706;49.198;7.064;2022-09-09T14:00:52;22.50;99.90
7331;DHT22;3706;49.198;7.064;2022-09-09T14:03:20;22.00;99.90
7331;DHT22;3706;49.198;7.064;2022-09-09T14:05:47;21.70;99.90
7331;DHT22;3706;49.198;7.064;2022-09-09T14:08:23;21.50;99.90
7331;DHT22;3706;49.198;7.064;2022-09-09T14:10:50;21.70;99.90
7331;DHT22;3706;49.198;7.064;2022-09-09T14:13:19;21.70;99.90
7331;DHT22;3706;49.198;7.064;2022-09-09T14:15:48;21.80;99.90
7331;DHT22;3706;49.198;7.064;2022-09-09T14:18:16;21.80;99.90
7331;DHT22;3706;49.198;7.064;2022-09-09T14:20:44;21.80;99.90
7331;DHT22;3706;49.198;7.064;2022-09-09T14:23:11;21.70;99.90
7331;DHT22;3706;49.198;7.064;2022-09-09T14:25:40;21.40;99.90
7331;DHT22;3706;49.198;7.064;2022-09-09T14:28:10;21.20;99.90
7331;DHT22;3706;49.198;7.064;2022-09-09T14:30:39;20.90;99.90
7331;DHT22;3706;49.198;7.064;2022-09-09T14:33:10;20.70;99.90
7331;DHT22;3706;49.198;7.064;2022-09-09T14:35:38;20.50;99.90
7331;DHT22;3706;49.198;7.064;2022-09-09T14:38:06;20.40;99.90
7331;DHT22;3706;49.198;7.064;2022-09-09T14:40:34;20.30;99.90
7331;DHT22;3706;49.198;7.064;2022-09-09T14:43:01;20.10;99.90
7331;DHT22;3706;49.198;7.064;2022-09-09T14:45:28;19.70;99.90
7331;DHT22;3706;49.198;7.064;2022-09-09T14:47:57;19.30;99.90
7331;DHT22;3706;49.198;7.064;2022-09-09T14:50:24;19.10;99.90
7331;DHT22;3706;49.198;7.064;2022-09-09T14:52:51;19.10;99.90
7331;DHT22;3706;49.198;7.064;2022-09-09T14:55:18;19.20;99.90
7331;DHT22;3706;49.198;7.064;2022-09-09T14:57:45;19.30;99.90
7331;DHT22;3706;49.198;7.064;2022-09-09T15:00:13;19.30;99.90
7331;DHT22;3706;49.198;7.064;2022-09-09T15:02:40;19.50;99.90
7331;DHT22;3706;49.198;7.064;2022-09-09T15:05:09;19.70;99.90
7331;DHT22;3706;49.198;7.064;2022-09-09T15:07:36;19.80;99.90
7331;DHT22;3706;49.198;7.064;2022-09-09T15:10:04;19.90;99.90
7331;DHT22;3706;49.198;7.064;2022-09-09T15:12:32;20.00;99.90
7331;DHT22;3706;49.198;7.064;2022-09-09T15:15:01;20.10;99.90
7331;DHT22;3706;49.198;7.064;2022-09-09T15:17:28;20.10;99.90
7331;DHT22;3706;49.198;7.064;2022-09-09T15:19:54;20.00;99.90
7331;DHT22;3706;49.198;7.064;2022-09-09T15:22:23;19.90;99.90
7331;DHT22;3706;49.198;7.064;2022-09-09T15:24:50;19.90;99.90
7331;DHT22;3706;49.198;7.064;2022-09-09T15:27:16;19.70;99.90
7331;DHT22;3706;49.198;7.064;2022-09-09T15:29:43;19.60;99.90
7331;DHT22;3706;49.198;7.064;2022-09-09T15:32:11;19.50;99.90
7331;DHT22;3706;49.198;7.064;2022-09-09T15:34:38;19.30;99.90
7331;DHT22;3706;49.198;7.064;2022-09-09T15:37:05;19.30;99.90
7331;DHT22;3706;49.198;7.064;2022-09-09T15:39:34;19.30;99.90
7331;DHT22;3706;49.198;7.064;2022-09-09T15:42:01;19.20;99.90
7331;DHT22;3706;49.198;7.064;2022-09-09T15:44:28;19.20;99.90
7331;DHT22;3706;49.198;7.064;2022-09-09T15:46:55;19.20;99.90
7331;DHT22;3706;49.198;7.064;2022-09-09T15:49:23;19.10;99.90
7331;DHT22;3706;49.198;7.064;2022-09-09T15:51:52;19.10;99.90
7331;DHT22;3706;49.198;7.064;2022-09-09T15:54:21;19.10;99.90
7331;DHT22;3706;49.198;7.064;2022-09-09T15:56:53;19.10;99.90
7331;DHT22;3706;49.198;7.064;2022-09-09T15:59:21;19.20;99.90
7331;DHT22;3706;49.198;7.064;2022-09-09T16:01:48;19.20;99.90
7331;DHT22;3706;49.198;7.064;2022-09-09T16:04:17;19.10;99.90
7331;DHT22;3706;49.198;7.064;2022-09-09T16:06:49;19.10;99.90
7331;DHT22;3706;49.198;7.064;2022-09-09T16:09:17;19.10;99.90
7331;DHT22;3706;49.198;7.064;2022-09-09T16:11:44;19.10;99.90
7331;DHT22;3706;49.198;7.064;2022-09-09T16:14:16;19.00;99.90
7331;DHT22;3706;49.198;7.064;2022-09-09T16:16:44;19.00;99.90
7331;DHT22;3706;49.198;7.064;2022-09-09T16:19:12;18.70;99.90
7331;DHT22;3706;49.198;7.064;2022-09-09T16:21:41;18.30;99.90
7331;DHT22;3706;49.198;7.064;2022-09-09T16:24:11;17.80;99.90
7331;DHT22;3706;49.198;7.064;2022-09-09T16:26:40;17.20;99.90
7331;DHT22;3706;49.198;7.064;2022-09-09T16:29:08;16.80;99.90
7331;DHT22;3706;49.198;7.064;2022-09-09T16:31:38;16.40;99.90
7331;DHT22;3706;49.198;7.064;2022-09-09T16:34:06;16.10;99.90
7331;DHT22;3706;49.198;7.064;2022-09-09T16:36:39;15.90;99.90
7331;DHT22;3706;49.198;7.064;2022-09-09T16:39:08;15.80;99.90
7331;DHT22;3706;49.198;7.064;2022-09-09T16:41:37;15.80;99.90
7331;DHT22;3706;49.198;7.064;2022-09-09T16:44:08;16.00;99.90
7331;DHT22;3706;49.198;7.064;2022-09-09T16:46:38;16.10;99.90
7331;DHT22;3706;49.198;7.064;2022-09-09T16:49:07;16.30;99.90
7331;DHT22;3706;49.198;7.064;2022-09-09T16:51:36;16.50;99.90